Time;durP1;ratioP1;P1;durP2;ratioP2;P2;SDS_P1;SDS_P2;PMS_P1;PMS_P2;Temp;Humidity;BMP_temperature;BMP_pressure;BME280_temperature;BME280_humidity;BME280_pressure;Samples;Min_cycle;Max_cycle;Signal;HPM_P1;HPM_P2
2022/11/02 00:00:38;;;;;;;;;;;;;;;-148.88;76.45;75923.47;5116161;28;19911;-75
2022/11/02 00:03:03;;;;;;;;;;;;;;;-148.88;76.69;75911.28;5116600;28;19903;-75
2022/11/02 00:05:29;;;;;;;;;;;;;;;-148.88;76.92;75921.44;5116123;28;19957;-75
2022/11/02 00:07:55;;;;;;;;;;;;;;;-148.88;77.41;75923.47;5116124;28;19955;-75
2022/11/02 00:10:20;;;;;;;;;;;;;;;-148.88;77.55;75927.53;5116025;28;19955;-75
2022/11/02 00:12:46;;;;;;;;;;;;;;;-148.88;77.75;75931.59;5116207;28;19996;-75
2022/11/02 00:15:11;;;;;;;;;;;;;;;-148.88;77.56;75923.47;5115961;28;19911;-75
2022/11/02 00:17:37;;;;;;;;;;;;;;;-148.88;77.76;75925.50;5115923;28;19943;-75
2022/11/02 00:20:02;;;;;;;;;;;;;;;-148.88;77.65;75927.53;5115902;28;20290;-75
2022/11/02 00:22:28;;;;;;;;;;;;;;;-148.88;77.37;75919.41;5114881;28;19915;-75
2022/11/02 00:24:54;;;;;;;;;;;;;;;-148.88;77.72;75919.41;5097552;28;19914;-75
2022/11/02 00:27:19;;;;;;;;;;;;;;;-148.88;77.73;75921.44;5116147;28;20003;-75
2022/11/02 00:29:45;;;;;;;;;;;;;;;-148.88;78.03;75923.47;5116100;28;19943;-75
2022/11/02 00:32:10;;;;;;;;;;;;;;;-148.88;78.36;75931.59;5115700;28;19907;-75
2022/11/02 00:34:35;;;;;;;;;;;;;;;-148.88;78.59;75929.56;5115663;28;19914;-75
2022/11/02 00:37:00;;;;;;;;;;;;;;;-148.88;78.64;75927.53;5115583;28;19912;-75
2022/11/02 00:39:25;;;;;;;;;;;;;;;-148.88;78.42;75921.44;5115473;28;19943;-75
2022/11/02 00:41:51;;;;;;;;;;;;;;;-148.88;78.47;75923.47;5115642;28;19951;-75
2022/11/02 00:44:17;;;;;;;;;;;;;;;-148.88;78.66;75923.47;5115360;28;20286;-75
2022/11/02 00:46:42;;;;;;;;;;;;;;;-148.88;78.78;75935.66;5115466;28;19916;-75
2022/11/02 00:49:07;;;;;;;;;;;;;;;-148.88;78.44;75919.41;5115344;28;19908;-75
2022/11/02 00:51:32;;;;;;;;;;;;;;;-148.88;78.77;75919.41;5115242;28;19914;-75
2022/11/02 00:53:57;;;;;;;;;;;;;;;-148.88;78.93;75921.44;5115233;28;19942;-75
2022/11/02 00:56:23;;;;;;;;;;;;;;;-148.88;79.06;75903.16;5115181;28;19908;-75
2022/11/02 00:58:48;;;;;;;;;;;;;;;-148.88;78.87;75905.19;5115114;28;19907;-75
2022/11/02 01:01:13;;;;;;;;;;;;;;;-148.88;78.80;75895.03;5114936;28;19912;-75
2022/11/02 01:03:38;;;;;;;;;;;;;;;-148.88;78.73;75882.84;5115879;28;19949;-75
2022/11/02 01:06:07;;;;;;;;;;;;;;;-148.88;78.92;75888.94;5115100;28;19951;-75
2022/11/02 01:08:32;;;;;;;;;;;;;;;-148.88;78.81;75884.88;5115106;28;19915;-75
2022/11/02 01:11:07;;;;;;;;;;;;;;;-148.88;79.04;75886.91;5114903;28;20297;-75
2022/11/02 01:13:32;;;;;;;;;;;;;;;-148.88;79.09;75878.78;5115042;28;19914;-75
2022/11/02 01:15:58;;;;;;;;;;;;;;;-148.88;79.09;75870.66;5114856;28;19994;-75
2022/11/02 01:18:23;;;;;;;;;;;;;;;-148.88;79.22;75868.63;5114751;28;20366;-75
2022/11/02 01:20:54;;;;;;;;;;;;;;;-148.88;79.35;75856.44;5115036;28;19907;-75
2022/11/02 01:23:19;;;;;;;;;;;;;;;-148.88;79.13;75846.28;5115027;28;19914;-75
2022/11/02 01:25:45;;;;;;;;;;;;;;;-148.88;79.49;75850.34;5114862;28;19908;-75
2022/11/02 01:28:10;;;;;;;;;;;;;;;-148.88;79.24;75846.28;5096689;28;19985;-75
2022/11/02 01:30:37;;;;;;;;;;;;;;;-148.88;79.23;75838.16;5114484;28;20270;-75
2022/11/02 01:33:03;;;;;;;;;;;;;;;-148.88;79.48;75838.16;5114360;28;19912;-75
2022/11/02 01:35:29;;;;;;;;;;;;;;;-148.88;78.97;75825.97;5114770;28;19908;-75
2022/11/02 01:37:54;;;;;;;;;;;;;;;-148.88;79.04;75821.91;5114416;28;19908;-75
2022/11/02 01:40:19;;;;;;;;;;;;;;;-148.88;79.06;75813.78;5114349;28;20451;-75
2022/11/02 01:42:44;;;;;;;;;;;;;;;-148.88;78.82;75803.63;5114530;28;20374;-75
2022/11/02 01:45:12;;;;;;;;;;;;;;;-148.88;78.93;75797.53;5114567;28;19908;-75
2022/11/02 01:47:39;;;;;;;;;;;;;;;-148.88;79.14;75789.41;5114322;28;19911;-75
2022/11/02 01:50:17;;;;;;;;;;;;;;;-148.88;78.95;75789.41;5114493;28;19911;-76
2022/11/02 01:52:42;;;;;;;;;;;;;;;-148.88;78.97;75781.28;5114188;28;19955;-75
2022/11/02 01:55:08;;;;;;;;;;;;;;;-148.88;79.12;75779.25;5114471;28;19908;-75
2022/11/02 01:57:34;;;;;;;;;;;;;;;-148.88;78.87;75769.09;5114051;28;19907;-75
2022/11/02 02:00:03;;;;;;;;;;;;;;;-148.88;78.76;75771.13;5114051;28;19932;-75
2022/11/02 02:02:28;;;;;;;;;;;;;;;-148.88;78.70;75765.03;5113723;28;19915;-75
2022/11/02 02:05:00;;;;;;;;;;;;;;;-148.88;78.84;75763.00;5113766;28;19908;-75
2022/11/02 02:07:26;;;;;;;;;;;;;;;-148.88;79.03;75765.03;5113750;28;20002;-75
2022/11/02 02:09:52;;;;;;;;;;;;;;;-148.88;79.24;75756.91;5114384;28;20010;-75
2022/11/02 02:12:18;;;;;;;;;;;;;;;-148.88;79.26;75760.97;5114057;28;19908;-75
2022/11/02 02:14:43;;;;;;;;;;;;;;;-148.88;79.91;75756.91;5113829;28;19915;-75
2022/11/02 02:17:19;;;;;;;;;;;;;;;-148.88;79.66;75752.84;5114074;28;19908;-75
2022/11/02 02:20:00;;;;;;;;;;;;;;;-148.88;80.03;75748.78;5114365;28;19957;-75
2022/11/02 02:22:28;;;;;;;;;;;;;;;-148.88;80.03;75748.78;5113865;28;19908;-75
2022/11/02 02:24:56;;;;;;;;;;;;;;;-148.88;80.52;75754.88;5113680;28;19916;-75
2022/11/02 02:27:40;;;;;;;;;;;;;;;-148.88;80.36;75742.69;5113708;28;19918;-75
2022/11/02 02:30:09;;;;;;;;;;;;;;;-148.88;80.92;75746.75;5113535;28;19951;-75
2022/11/02 02:32:43;;;;;;;;;;;;;;;-148.88;80.77;75742.69;5095282;28;19939;-75
2022/11/02 02:35:12;;;;;;;;;;;;;;;-148.88;80.73;75736.59;5113871;28;20387;-75
2022/11/02 02:37:45;;;;;;;;;;;;;;;-148.88;81.03;75746.75;5095336;28;20014;-75
2022/11/02 02:40:13;;;;;;;;;;;;;;;-148.88;81.42;75748.78;5113527;28;19915;-75
2022/11/02 02:42:42;;;;;;;;;;;;;;;-148.88;81.28;75742.69;5113173;28;20340;-75
2022/11/02 02:45:10;;;;;;;;;;;;;;;-148.88;81.56;75742.69;5115102;28;20270;-75
2022/11/02 02:47:40;;;;;;;;;;;;;;;-148.88;82.08;75746.75;5117604;28;19957;-75
2022/11/02 02:50:10;;;;;;;;;;;;;;;-148.88;82.79;75760.97;5117477;28;19919;-75
2022/11/02 02:52:36;;;;;;;;;;;;;;;-148.88;82.75;75760.97;5117740;28;19907;-75
2022/11/02 02:55:02;;;;;;;;;;;;;;;-148.88;83.06;75763.00;5117459;28;19914;-75
2022/11/02 02:57:29;;;;;;;;;;;;;;;-148.88;82.94;75748.78;5117382;28;19918;-75
2022/11/02 02:59:55;;;;;;;;;;;;;;;-148.88;82.89;75748.78;5117753;28;19908;-75
2022/11/02 03:02:31;;;;;;;;;;;;;;;-148.88;82.99;75752.84;5117148;28;19912;-75
2022/11/02 03:04:56;;;;;;;;;;;;;;;-148.88;83.12;75748.78;5117358;28;19907;-75
2022/11/02 03:07:23;;;;;;;;;;;;;;;-148.88;82.86;75744.72;5117210;28;19916;-75
2022/11/02 03:10:07;;;;;;;;;;;;;;;-148.88;82.76;75752.84;5117146;28;19958;-75
2022/11/02 03:12:38;;;;;;;;;;;;;;;-148.88;83.01;75756.91;5117017;28;19921;-75
2022/11/02 03:15:10;;;;;;;;;;;;;;;-148.88;82.96;75756.91;5098801;28;20438;-75
2022/11/02 03:17:48;;;;;;;;;;;;;;;-148.88;82.21;75740.66;5116992;28;20385;-75
2022/11/02 03:20:21;;;;;;;;;;;;;;;-148.88;82.89;75756.91;5116939;28;19939;-75
2022/11/02 03:23:02;;;;;;;;;;;;;;;-148.88;82.20;75732.53;5116899;28;19907;-75
2022/11/02 03:25:45;;;;;;;;;;;;;;;-148.88;81.53;75732.53;5117121;28;20324;-75
2022/11/02 03:28:15;;;;;;;;;;;;;;;-148.88;81.63;75736.59;5116875;28;20373;-75
2022/11/02 03:30:54;;;;;;;;;;;;;;;-148.88;81.79;75744.72;5116704;28;20292;-75
2022/11/02 03:33:29;;;;;;;;;;;;;;;-148.88;81.97;75752.84;5117012;28;19908;-75
2022/11/02 03:36:03;;;;;;;;;;;;;;;-148.88;81.71;75756.91;5116983;28;19907;-75
2022/11/02 03:38:46;;;;;;;;;;;;;;;-148.88;81.72;75760.97;5116713;28;19907;-75
2022/11/02 03:41:13;;;;;;;;;;;;;;;-148.88;81.71;75769.09;5116486;28;19913;-75
2022/11/02 03:43:40;;;;;;;;;;;;;;;-148.88;80.93;75752.84;5116498;28;19940;-75
2022/11/02 03:46:06;;;;;;;;;;;;;;;-148.88;81.39;75765.03;5116404;28;19956;-75
2022/11/02 03:48:35;;;;;;;;;;;;;;;-148.88;80.99;75763.00;5116445;28;20343;-75
2022/11/02 03:51:04;;;;;;;;;;;;;;;-148.88;80.96;75769.09;5116559;28;19911;-75
2022/11/02 03:53:33;;;;;;;;;;;;;;;-148.88;80.99;75775.19;5116599;28;19930;-75
2022/11/02 03:56:02;;;;;;;;;;;;;;;-148.88;81.75;75793.47;5114980;28;20263;-75
2022/11/02 03:58:27;;;;;;;;;;;;;;;-148.88;81.53;75791.44;5097849;28;19917;-75
2022/11/02 04:03:22;;;;;;;;;;;;;;;-148.88;81.91;75789.41;5092895;28;19927;-76
2022/11/02 04:05:47;;;;;;;;;;;;;;;-148.88;82.20;75797.53;5095642;28;19965;-75
2022/11/02 04:08:20;;;;;;;;;;;;;;;-148.88;82.14;75803.63;5095884;28;19912;-75
2022/11/02 04:16:14;;;;;;;;;;;;;;;-148.88;82.15;75807.69;5095867;28;19981;-76
2022/11/02 04:21:24;;;;;;;;;;;;;;;-148.88;82.10;75809.72;5095454;28;19915;-75
2022/11/02 04:26:33;;;;;;;;;;;;;;;-148.88;82.16;75805.66;5095985;28;19919;-76
2022/11/02 04:28:59;;;;;;;;;;;;;;;-148.88;82.00;75805.66;5095940;28;19908;-75
2022/11/02 04:31:24;;;;;;;;;;;;;;;-148.88;82.32;75813.78;5077345;28;20343;-75
2022/11/02 04:33:49;;;;;;;;;;;;;;;-148.88;82.10;75817.84;5095259;28;19908;-75
2022/11/02 04:36:14;;;;;;;;;;;;;;;-148.88;81.95;75811.75;5095116;28;19999;-75
2022/11/02 04:38:40;;;;;;;;;;;;;;;-148.88;81.97;75825.97;5095061;28;20014;-75
2022/11/02 04:43:54;;;;;;;;;;;;;;;-148.88;81.68;75825.97;5095551;28;19915;-75
2022/11/02 04:46:19;;;;;;;;;;;;;;;-148.88;81.13;75823.94;5076834;28;20285;-75
2022/11/02 04:48:45;;;;;;;;;;;;;;;-148.88;80.75;75817.84;5094826;28;20334;-75
2022/11/02 04:51:10;;;;;;;;;;;;;;;-148.88;81.02;75821.91;5094764;28;20400;-75
2022/11/02 04:53:35;;;;;;;;;;;;;;;-148.88;80.94;75821.91;5094687;28;19958;-75
2022/11/02 04:56:01;;;;;;;;;;;;;;;-148.88;81.22;75817.84;5076674;28;19915;-75
2022/11/02 04:58:26;;;;;;;;;;;;;;;-148.88;81.24;75823.94;5094626;28;19907;-75
2022/11/02 05:00:51;;;;;;;;;;;;;;;-148.88;81.43;75817.84;5094629;28;19908;-75
2022/11/02 05:03:16;;;;;;;;;;;;;;;-148.88;81.57;75821.91;5094533;28;19911;-74
2022/11/02 05:05:42;;;;;;;;;;;;;;;-148.88;81.71;75815.81;5094794;28;19960;-75
2022/11/02 05:08:07;;;;;;;;;;;;;;;-148.88;81.78;75819.88;5076227;28;19943;-75
2022/11/02 05:10:33;;;;;;;;;;;;;;;-148.88;81.74;75823.94;5094806;28;19965;-75
2022/11/02 05:12:58;;;;;;;;;;;;;;;-148.88;82.03;75821.91;5076241;28;19908;-75
2022/11/02 05:15:24;;;;;;;;;;;;;;;-148.88;82.20;75832.06;5094306;28;19908;-76
2022/11/02 05:17:49;;;;;;;;;;;;;;;-148.88;82.20;75834.09;5094543;28;19908;-75
2022/11/02 05:20:14;;;;;;;;;;;;;;;-148.88;82.08;75834.09;5076047;28;19912;-75
2022/11/02 05:22:42;;;;;;;;;;;;;;;-148.88;81.26;75817.84;5094432;28;19908;-76
2022/11/02 05:25:11;;;;;;;;;;;;;;;-148.88;81.95;75828.00;5094192;28;20292;-77
2022/11/02 05:27:36;;;;;;;;;;;;;;;-148.88;82.22;75825.97;5094249;28;19908;-75
2022/11/02 05:30:02;;;;;;;;;;;;;;;-148.88;82.39;75838.16;5094382;28;20289;-76
2022/11/02 05:32:27;;;;;;;;;;;;;;;-148.88;81.82;75830.03;5093980;28;19914;-75
2022/11/02 05:34:52;;;;;;;;;;;;;;;-148.88;81.92;75825.97;5093990;28;19912;-75
2022/11/02 05:37:17;;;;;;;;;;;;;;;-148.88;81.94;75828.00;5094068;28;19908;-75
2022/11/02 05:39:43;;;;;;;;;;;;;;;-148.88;81.68;75828.00;5075681;28;19908;-75
2022/11/02 05:42:08;;;;;;;;;;;;;;;-148.88;81.41;75825.97;5093876;28;19912;-75
2022/11/02 05:44:33;;;;;;;;;;;;;;;-148.88;81.51;75825.97;5093848;28;20362;-75
2022/11/02 05:46:59;;;;;;;;;;;;;;;-148.88;81.38;75830.03;5094067;28;20394;-76
2022/11/02 05:49:25;;;;;;;;;;;;;;;-148.88;81.69;75825.97;5094063;28;19999;-75
2022/11/02 05:51:50;;;;;;;;;;;;;;;-148.88;81.86;75840.19;5094089;28;19909;-75
2022/11/02 05:54:15;;;;;;;;;;;;;;;-148.88;82.00;75840.19;5094098;28;20251;-75
2022/11/02 05:56:40;;;;;;;;;;;;;;;-148.88;81.83;75834.09;5093799;28;19914;-75
2022/11/02 05:59:06;;;;;;;;;;;;;;;-148.88;81.59;75834.09;5093981;28;19908;-75
2022/11/02 06:01:31;;;;;;;;;;;;;;;-148.88;81.20;75828.00;5075396;28;19916;-75
2022/11/02 06:03:56;;;;;;;;;;;;;;;-148.88;81.55;75838.16;5093593;28;19915;-76
2022/11/02 06:06:21;;;;;;;;;;;;;;;-148.88;81.15;75834.09;5093732;28;19953;-75
2022/11/02 06:08:47;;;;;;;;;;;;;;;-148.88;81.48;75846.28;5093532;28;19915;-75
2022/11/02 06:11:12;;;;;;;;;;;;;;;-148.88;80.98;75850.34;5093527;28;19908;-74
2022/11/02 06:13:38;;;;;;;;;;;;;;;-148.88;80.60;75834.09;5093373;28;19908;-74
2022/11/02 06:16:04;;;;;;;;;;;;;;;-148.88;80.77;75854.41;5075166;28;19907;-74
2022/11/02 06:18:33;;;;;;;;;;;;;;;-148.88;80.25;75846.28;5093103;28;19915;-74
2022/11/02 06:20:58;;;;;;;;;;;;;;;-148.88;80.47;75854.41;5092676;28;20368;-75
2022/11/02 06:23:27;;;;;;;;;;;;;;;-148.88;80.51;75864.56;5093309;28;19947;-75
2022/11/02 06:25:53;;;;;;;;;;;;;;;-148.88;80.01;75850.34;5093229;28;20384;-75
2022/11/02 06:28:18;;;;;;;;;;;;;;;-148.88;80.13;75854.41;5075146;28;19953;-74
2022/11/02 06:30:44;;;;;;;;;;;;;;;-148.88;79.79;75854.41;5075034;28;19908;-74
2022/11/02 06:33:09;;;;;;;;;;;;;;;-148.88;79.73;75858.47;5093441;28;20330;-74
2022/11/02 06:35:34;;;;;;;;;;;;;;;-148.88;79.76;75856.44;5093494;28;19916;-75
2022/11/02 06:37:59;;;;;;;;;;;;;;;-148.88;79.98;75866.59;5093220;28;19908;-74
2022/11/02 06:40:25;;;;;;;;;;;;;;;-148.88;79.58;75862.53;5093226;28;20301;-74
2022/11/02 06:42:54;;;;;;;;;;;;;;;-148.88;79.41;75862.53;5075016;28;20002;-74
2022/11/02 06:45:19;;;;;;;;;;;;;;;-148.88;79.07;75854.41;5093092;28;19912;-74
2022/11/02 06:47:47;;;;;;;;;;;;;;;-148.88;78.82;75864.56;5075051;28;19915;-74
2022/11/02 06:50:12;;;;;;;;;;;;;;;-148.88;78.57;75866.59;5093100;28;19908;-73
2022/11/02 06:52:41;;;;;;;;;;;;;;;-148.88;78.55;75862.53;5093080;28;20057;-73
2022/11/02 06:55:06;;;;;;;;;;;;;;;-148.88;79.14;75882.84;5074992;28;19908;-74
2022/11/02 06:57:35;;;;;;;;;;;;;;;-148.88;79.10;75880.81;5093018;28;19908;-74
2022/11/02 07:00:03;;;;;;;;;;;;;;;-148.88;78.67;75874.72;5093077;28;20290;-73
2022/11/02 07:02:29;;;;;;;;;;;;;;;-148.88;78.70;75880.81;5092997;28;19919;-74
2022/11/02 07:04:54;;;;;;;;;;;;;;;-148.88;78.92;75882.84;5093022;28;19916;-73
2022/11/02 07:07:19;;;;;;;;;;;;;;;-148.88;78.79;75886.91;5093632;28;19916;-74
2022/11/02 07:09:44;;;;;;;;;;;;;;;-148.88;78.35;75874.72;5093307;28;19961;-74
2022/11/02 07:12:10;;;;;;;;;;;;;;;-148.88;78.10;75884.88;5093046;28;19958;-74
2022/11/02 07:14:35;;;;;;;;;;;;;;;-148.88;78.63;75899.09;5092972;28;19918;-74
2022/11/02 07:17:00;;;;;;;;;;;;;;;-148.88;77.68;75886.91;5074803;28;19908;-73
2022/11/02 07:19:25;;;;;;;;;;;;;;;-148.88;77.26;75878.78;5092910;28;19923;-74
2022/11/02 07:21:51;;;;;;;;;;;;;;;-148.88;77.71;75890.97;5092821;28;19947;-74
2022/11/02 07:24:16;;;;;;;;;;;;;;;-148.88;77.59;75903.16;5092843;28;19955;-75
2022/11/02 07:26:41;;;;;;;;;;;;;;;-148.88;77.41;75907.22;5093256;28;19981;-74
2022/11/02 07:29:06;;;;;;;;;;;;;;;-148.88;77.70;75907.22;5092873;28;19908;-74
2022/11/02 07:31:31;;;;;;;;;;;;;;;-148.88;77.57;75911.28;5095054;28;19908;-74
2022/11/02 07:33:57;;;;;;;;;;;;;;;-148.88;77.26;75905.19;5096455;28;19908;-75
2022/11/02 07:36:22;;;;;;;;;;;;;;;-148.88;77.36;75907.22;5096371;28;19912;-75
2022/11/02 07:38:47;;;;;;;;;;;;;;;-148.88;76.91;75901.13;5096788;28;19908;-75
2022/11/02 07:41:12;;;;;;;;;;;;;;;-148.88;77.18;75919.41;5096014;28;20375;-75
2022/11/02 07:43:37;;;;;;;;;;;;;;;-148.88;76.87;75915.34;5095965;28;19914;-75
2022/11/02 07:46:03;;;;;;;;;;;;;;;-148.88;76.79;75907.22;5095927;28;19965;-75
2022/11/02 07:48:28;;;;;;;;;;;;;;;-148.88;76.39;75911.28;5077783;28;19912;-75
2022/11/02 07:50:56;;;;;;;;;;;;;;;-148.88;75.30;75888.94;5077628;28;19951;-75
2022/11/02 07:53:21;;;;;;;;;;;;;;;-148.88;75.53;75899.09;5096148;28;19908;-75
2022/11/02 07:55:46;;;;;;;;;;;;;;;-148.88;74.92;75890.97;5095840;28;19915;-75
2022/11/02 07:58:14;;;;;;;;;;;;;;;-148.88;75.11;75903.16;5095818;28;19915;-75
2022/11/02 08:00:42;;;;;;;;;;;;;;;-148.88;74.55;75888.94;5095667;28;19908;-75
2022/11/02 08:03:08;;;;;;;;;;;;;;;-148.88;74.48;75893.00;5095540;28;19924;-75
2022/11/02 08:05:34;;;;;;;;;;;;;;;-148.88;73.62;75903.16;5095643;28;19919;-75
2022/11/02 08:08:00;;;;;;;;;;;;;;;-148.88;74.10;75899.09;5095586;28;20367;-75
2022/11/02 08:10:26;;;;;;;;;;;;;;;-148.88;74.66;75901.13;5095795;28;19912;-74
2022/11/02 08:12:51;;;;;;;;;;;;;;;-148.88;73.67;75897.06;5077414;28;19957;-75
2022/11/02 08:15:16;;;;;;;;;;;;;;;-148.88;73.71;75915.34;5095519;28;20378;-75
2022/11/02 08:17:42;;;;;;;;;;;;;;;-148.88;73.02;75903.16;5095472;28;20389;-75
2022/11/02 08:20:08;;;;;;;;;;;;;;;-148.88;72.66;75911.28;5095594;28;19908;-75
2022/11/02 08:22:39;;;;;;;;;;;;;;;-148.88;72.43;75901.13;5095305;28;19915;-75
2022/11/02 08:25:05;;;;;;;;;;;;;;;-148.88;72.31;75913.31;5095223;28;19961;-75
2022/11/02 08:27:30;;;;;;;;;;;;;;;-148.88;72.61;75915.34;5077021;28;19907;-76
2022/11/02 08:29:56;;;;;;;;;;;;;;;-148.88;72.20;75923.47;5095693;28;19908;-75
2022/11/02 08:32:21;;;;;;;;;;;;;;;-148.88;72.58;75905.19;5095076;28;20305;-75
2022/11/02 08:34:46;;;;;;;;;;;;;;;-148.88;71.98;75913.31;5095055;28;20294;-75
2022/11/02 08:37:11;;;;;;;;;;;;;;;-148.88;71.52;75917.38;5095288;28;19908;-75
2022/11/02 08:39:36;;;;;;;;;;;;;;;-148.88;71.65;75923.47;5094976;28;19908;-75
2022/11/02 08:42:02;;;;;;;;;;;;;;;-148.88;71.03;75923.47;5094246;28;19908;-75
2022/11/02 08:44:27;;;;;;;;;;;;;;;-148.88;70.65;75919.41;5094609;28;19954;-75
2022/11/02 08:46:53;;;;;;;;;;;;;;;-148.88;71.02;75897.06;5095066;28;19908;-75
2022/11/02 08:49:20;;;;;;;;;;;;;;;-148.88;70.14;75915.34;5095005;28;19908;-75
2022/11/02 08:51:45;;;;;;;;;;;;;;;-148.88;70.00;75911.28;5094569;28;19957;-75
2022/11/02 08:54:10;;;;;;;;;;;;;;;-148.88;69.13;75923.47;5095436;28;20316;-76
2022/11/02 08:56:35;;;;;;;;;;;;;;;-148.88;69.38;75911.28;5094651;28;20386;-75
2022/11/02 08:59:01;;;;;;;;;;;;;;;-148.88;69.91;75919.41;5094803;28;19908;-75
2022/11/02 09:01:26;;;;;;;;;;;;;;;-148.88;69.76;75929.56;5094246;28;19950;-75
2022/11/02 09:03:51;;;;;;;;;;;;;;;-148.88;70.25;75941.75;5094951;28;19998;-75
2022/11/02 09:06:16;;;;;;;;;;;;;;;-148.88;70.12;75931.59;5094199;28;20324;-74
2022/11/02 09:08:41;;;;;;;;;;;;;;;-148.88;70.02;75923.47;5094606;28;19908;-75
2022/11/02 09:11:07;;;;;;;;;;;;;;;-148.88;69.34;75903.16;5094480;28;19916;-74
2022/11/02 09:13:32;;;;;;;;;;;;;;;-148.88;68.58;75907.22;5094237;28;20339;-74
2022/11/02 09:15:58;;;;;;;;;;;;;;;-148.88;68.55;75893.00;5094166;28;20419;-76
2022/11/02 09:18:23;;;;;;;;;;;;;;;-148.88;67.28;75909.25;5094339;28;20330;-75
2022/11/02 09:20:51;;;;;;;;;;;;;;;-148.88;67.94;75901.13;5094215;28;19915;-75
2022/11/02 09:23:16;;;;;;;;;;;;;;;-148.88;67.16;75909.25;5075738;28;20405;-75
2022/11/02 09:25:42;;;;;;;;;;;;;;;-148.88;67.81;75907.22;5075742;28;19912;-75
2022/11/02 09:28:08;;;;;;;;;;;;;;;-148.88;68.33;75915.34;5094084;28;19908;-75
2022/11/02 09:30:33;;;;;;;;;;;;;;;-148.88;68.51;75911.28;5093986;28;19908;-75
2022/11/02 09:33:00;;;;;;;;;;;;;;;-148.88;68.15;75939.72;5094272;28;19973;-76
2022/11/02 09:35:26;;;;;;;;;;;;;;;-148.88;67.60;75923.47;5093918;28;19908;-75
2022/11/02 09:37:51;;;;;;;;;;;;;;;-148.88;66.80;75913.31;5093885;28;19947;-75
2022/11/02 09:40:20;;;;;;;;;;;;;;;-148.88;67.68;75917.38;5075623;28;20342;-75
2022/11/02 09:42:45;;;;;;;;;;;;;;;-148.88;67.36;75923.47;5094018;28;19908;-75
2022/11/02 09:45:12;;;;;;;;;;;;;;;-148.88;67.54;75943.78;5075486;28;19998;-74
2022/11/02 09:47:49;;;;;;;;;;;;;;;-148.88;66.96;75949.88;5093965;28;19908;-75
2022/11/02 09:50:18;;;;;;;;;;;;;;;-148.88;67.11;75964.09;5075536;28;19915;-75
2022/11/02 09:52:45;;;;;;;;;;;;;;;-148.88;66.81;75970.19;5075420;28;19999;-74
2022/11/02 09:55:14;;;;;;;;;;;;;;;-148.88;66.62;75951.91;5094082;28;20258;-75
2022/11/02 09:57:42;;;;;;;;;;;;;;;-148.88;65.52;75937.69;5093628;28;20282;-75
2022/11/02 10:00:12;;;;;;;;;;;;;;;-148.88;66.13;75958.00;5093482;28;20366;-75
2022/11/02 10:02:54;;;;;;;;;;;;;;;-148.88;65.92;75976.28;5093241;28;19923;-75
2022/11/02 10:05:28;;;;;;;;;;;;;;;-148.88;66.45;75972.22;5093407;28;19995;-75
2022/11/02 10:08:11;;;;;;;;;;;;;;;-148.88;66.58;75955.97;5075345;28;19908;-74
2022/11/02 10:10:55;;;;;;;;;;;;;;;-148.88;66.46;75949.88;5093349;28;19915;-74
2022/11/02 10:13:23;;;;;;;;;;;;;;;-148.88;66.31;75968.16;5075261;28;19912;-75
2022/11/02 10:16:17;;;;;;;;;;;;;;;-148.88;67.24;75976.28;5093373;28;20003;-75
2022/11/02 10:18:48;;;;;;;;;;;;;;;-148.88;66.99;75966.13;5075957;28;19908;-75
2022/11/02 10:21:17;;;;;;;;;;;;;;;-148.88;66.00;75939.72;5093354;28;20375;-75
2022/11/02 10:23:50;;;;;;;;;;;;;;;-148.88;64.98;75911.28;5093249;28;19987;-74
2022/11/02 10:26:31;;;;;;;;;;;;;;;-148.88;64.15;75905.19;5093468;28;19919;-75
2022/11/02 10:29:11;;;;;;;;;;;;;;;-148.88;63.83;75907.22;5093181;28;19912;-75
2022/11/02 10:31:36;;;;;;;;;;;;;;;-148.88;64.91;75911.28;5093436;28;19990;-75
2022/11/02 10:34:14;;;;;;;;;;;;;;;-148.88;64.76;75923.47;5093200;28;20402;-75
2022/11/02 10:36:58;;;;;;;;;;;;;;;-148.88;64.36;75964.09;5093132;28;19916;-75
2022/11/02 10:39:42;;;;;;;;;;;;;;;-148.88;65.12;75972.22;5093156;28;19912;-75
2022/11/02 10:42:25;;;;;;;;;;;;;;;-148.88;65.58;75972.22;5093047;28;19908;-74
2022/11/02 10:45:02;;;;;;;;;;;;;;;-148.88;65.43;75923.47;5093011;28;19999;-76
2022/11/02 10:47:51;;;;;;;;;;;;;;;-148.88;64.30;75872.69;5093368;28;19961;-75
2022/11/02 10:50:16;;;;;;;;;;;;;;;-148.88;64.09;75895.03;5081953;28;19962;-75
2022/11/02 10:52:43;;;;;;;;;;;;;;;-148.88;63.78;75919.41;5093161;28;19943;-75
2022/11/02 10:55:16;;;;;;;;;;;;;;;-148.88;64.30;75945.81;5093290;28;19908;-75
2022/11/02 10:57:41;;;;;;;;;;;;;;;-148.88;64.73;75915.34;5075027;28;19915;-75
2022/11/02 11:00:25;;;;;;;;;;;;;;;-148.88;65.54;75915.34;5074825;28;19908;-75
2022/11/02 11:03:08;;;;;;;;;;;;;;;-148.88;64.74;75943.78;5092890;28;19912;-75
2022/11/02 11:05:35;;;;;;;;;;;;;;;-148.88;65.46;75960.03;5093705;28;19919;-75
2022/11/02 11:08:01;;;;;;;;;;;;;;;-148.88;66.74;75974.25;5096822;28;19908;-75
2022/11/02 11:10:26;;;;;;;;;;;;;;;-148.88;66.58;75980.34;5096662;28;20437;-75
2022/11/02 11:12:53;;;;;;;;;;;;;;;-148.88;66.58;75955.97;5078449;28;19954;-74
2022/11/02 11:15:23;;;;;;;;;;;;;;;-148.88;66.05;75943.78;5096676;28;20282;-75
2022/11/02 11:17:49;;;;;;;;;;;;;;;-148.88;64.08;75929.56;5096901;28;20015;-75
2022/11/02 11:20:24;;;;;;;;;;;;;;;-148.88;63.94;75880.81;5096901;28;19973;-75
2022/11/02 11:23:06;;;;;;;;;;;;;;;-148.88;61.47;75842.22;5096708;28;20327;-75
2022/11/02 11:25:31;;;;;;;;;;;;;;;-148.88;60.53;75830.03;5096423;28;19912;-75
2022/11/02 11:27:57;;;;;;;;;;;;;;;-148.88;59.20;75821.91;5096428;28;19918;-76
2022/11/02 11:30:30;;;;;;;;;;;;;;;-148.88;57.36;75809.72;5096263;28;19907;-75
2022/11/02 11:32:56;;;;;;;;;;;;;;;-148.88;56.70;75844.25;5096550;28;20341;-75
2022/11/02 11:35:24;;;;;;;;;;;;;;;-148.88;58.01;75866.59;5096306;28;19908;-75
2022/11/02 11:37:55;;;;;;;;;;;;;;;-148.88;57.08;75868.63;5096218;28;19908;-75
2022/11/02 11:40:21;;;;;;;;;;;;;;;-148.88;58.78;75864.56;5096070;28;19908;-75
2022/11/02 11:42:51;;;;;;;;;;;;;;;-148.88;57.73;75813.78;5077923;28;19915;-74
2022/11/02 11:45:25;;;;;;;;;;;;;;;-148.88;56.73;75821.91;5095930;28;19912;-75
2022/11/02 11:47:52;;;;;;;;;;;;;;;-148.88;56.07;75886.91;5096082;28;19908;-75
2022/11/02 11:50:18;;;;;;;;;;;;;;;-148.88;55.71;75893.00;5095918;28;19915;-75
2022/11/02 11:52:43;;;;;;;;;;;;;;;-148.88;56.60;75913.31;5095882;28;19908;-75
2022/11/02 11:55:23;;;;;;;;;;;;;;;-148.88;56.38;75882.84;5095899;28;19908;-74
2022/11/02 11:58:07;;;;;;;;;;;;;;;-148.88;57.18;75913.31;5095834;28;19915;-75
2022/11/02 12:00:33;;;;;;;;;;;;;;;-148.88;58.50;75911.28;5077531;28;19907;-75
2022/11/02 12:03:09;;;;;;;;;;;;;;;-148.88;57.86;75864.56;5095685;28;19919;-74
2022/11/02 12:05:46;;;;;;;;;;;;;;;-148.88;58.41;75884.88;5095626;28;19926;-75
2022/11/02 12:08:14;;;;;;;;;;;;;;;-148.88;59.02;75913.31;5095628;28;19908;-75
2022/11/02 12:10:45;;;;;;;;;;;;;;;-148.88;57.31;75919.41;5095994;28;19908;-75
2022/11/02 12:13:19;;;;;;;;;;;;;;;-148.88;57.95;75955.97;5095539;28;19935;-75
2022/11/02 12:16:10;;;;;;;;;;;;;;;-148.88;58.06;75964.09;5095811;28;20366;-74
2022/11/02 12:18:44;;;;;;;;;;;;;;;-148.88;58.11;75943.78;5090112;28;20433;-74
2022/11/02 12:21:28;;;;;;;;;;;;;;;-148.88;57.19;75931.59;5077186;28;19908;-74
2022/11/02 12:23:59;;;;;;;;;;;;;;;-148.88;56.81;75919.41;5077541;28;19914;-74
2022/11/02 12:26:43;;;;;;;;;;;;;;;-148.88;57.13;75962.06;5095600;28;19919;-75
2022/11/02 12:29:27;;;;;;;;;;;;;;;-148.88;58.01;75980.34;5095486;28;19908;-75
2022/11/02 12:32:09;;;;;;;;;;;;;;;-148.88;58.41;75986.44;5095291;28;19916;-76
2022/11/02 12:35:00;;;;;;;;;;;;;;;-148.88;58.95;76006.75;5095446;28;19915;-75
2022/11/02 12:37:53;;;;;;;;;;;;;;;-148.88;58.51;76000.66;5095400;28;19908;-74
2022/11/02 12:40:37;;;;;;;;;;;;;;;-148.88;58.04;75986.44;5095273;28;19907;-75
2022/11/02 12:43:02;;;;;;;;;;;;;;;-148.88;57.30;75927.53;5095025;28;19908;-75
2022/11/02 12:45:48;;;;;;;;;;;;;;;-148.88;56.09;75909.25;5095095;28;19919;-75
2022/11/02 12:48:37;;;;;;;;;;;;;;;-148.88;54.04;75874.72;5094914;28;19908;-75
2022/11/02 12:51:15;;;;;;;;;;;;;;;-148.88;53.17;75842.22;5083753;28;19908;-75